Garden City Beach, South Carolina
Current Conditions -  °F | °C
As of 6:45 PM on Thursday 27 Nov 2014 (Local Time) from KMYR Reporting Station
Clear Clear  
Wind Chill: 44°   Ceiling: Unl
Heat Index: 46°   Visibility: 10mi
Dew Point: 36°   Wind: 6mph
Humidity: 66%   Direction: 320°NW
Pressure: 30.19"   Gusts: NA
Location:  33.5501°N, 79.0592°W
Report Text: KMYR 272345Z 32005KT 10SM CLR 08/02 A3019
Loading
Personal Weather Stations






























Interactive Weather Map New forecast layout! Learn more

10-Day Weather Forecast

Advertisements
Track Severe Weather on mobile